Time;durP1;ratioP1;P1;durP2;ratioP2;P2;SDS_P1;SDS_P2;PMS_P1;PMS_P2;Temp;Humidity;BMP_temperature;BMP_pressure;BME280_temperature;BME280_humidity;BME280_pressure;Samples;Min_cycle;Max_cycle;Signal;HPM_P1;HPM_P2
2023/03/27 00:02:19;;;;;;;1999.90;999.90;;;5.20;99.90;;;;;;5070968;28;20470;-66
2023/03/27 00:04:46;;;;;;;1999.90;999.90;;;5.20;99.90;;;;;;5070855;28;20415;-66
2023/03/27 00:07:12;;;;;;;1999.90;999.90;;;5.10;99.90;;;;;;5070614;28;20411;-66
2023/03/27 00:09:43;;;;;;;1999.90;999.90;;;5.10;99.90;;;;;;5076209;28;20489;-64
2023/03/27 00:12:09;;;;;;;1999.90;999.90;;;5.00;99.90;;;;;;5079235;28;20481;-64
2023/03/27 00:14:36;;;;;;;1999.90;999.90;;;5.00;99.90;;;;;;5070615;28;20415;-65
2023/03/27 00:17:03;;;;;;;1999.90;999.90;;;5.00;99.90;;;;;;5070352;28;20415;-66
2023/03/27 00:19:30;;;;;;;1999.90;999.90;;;5.00;99.90;;;;;;5070643;28;20454;-66
2023/03/27 00:21:57;;;;;;;1999.90;999.90;;;5.10;99.90;;;;;;5078677;28;20426;-66
2023/03/27 00:24:23;;;;;;;1999.90;999.90;;;5.10;99.90;;;;;;5070342;28;20411;-64
2023/03/27 00:26:51;;;;;;;1999.90;999.90;;;5.10;99.90;;;;;;5070419;28;20416;-66
2023/03/27 00:29:18;;;;;;;1999.90;999.90;;;5.10;99.90;;;;;;5070273;28;20895;-66
2023/03/27 00:31:45;;;;;;;1999.90;999.90;;;5.10;99.90;;;;;;5070493;28;20441;-64
2023/03/27 00:34:11;;;;;;;1999.90;999.90;;;5.20;99.90;;;;;;5081307;28;20419;-66
2023/03/27 00:36:38;;;;;;;1999.90;999.90;;;5.10;99.90;;;;;;5090349;28;20406;-66
2023/03/27 00:39:05;;;;;;;1999.90;999.90;;;5.00;99.90;;;;;;5090525;28;20436;-63
2023/03/27 00:41:32;;;;;;;1999.90;999.90;;;5.00;99.90;;;;;;5090695;28;20421;-66
2023/03/27 00:44:02;;;;;;;1999.90;999.90;;;5.00;99.90;;;;;;5088006;28;20421;-66
2023/03/27 00:46:38;;;;;;;1999.90;999.90;;;5.00;99.90;;;;;;5084509;28;20503;-65
2023/03/27 00:49:09;;;;;;;1999.90;999.90;;;5.00;99.90;;;;;;5086562;28;20430;-65
2023/03/27 00:51:38;;;;;;;1999.90;999.90;;;5.00;99.90;;;;;;5082470;28;20432;-65
2023/03/27 00:54:06;;;;;;;1999.90;999.90;;;4.90;99.90;;;;;;5086190;28;20937;-65
2023/03/27 00:56:37;;;;;;;1999.90;999.90;;;4.90;99.90;;;;;;5086195;28;20430;-66
2023/03/27 00:59:09;;;;;;;1999.90;999.90;;;4.80;99.90;;;;;;5087013;28;20460;-64
2023/03/27 01:01:36;;;;;;;1999.90;999.90;;;4.80;99.90;;;;;;5082463;28;20456;-66
2023/03/27 01:04:07;;;;;;;1999.90;999.90;;;4.80;99.90;;;;;;5086240;28;20421;-65
2023/03/27 01:06:35;;;;;;;1999.90;999.90;;;4.80;99.90;;;;;;5087584;28;20430;-63
2023/03/27 01:09:03;;;;;;;1999.90;999.90;;;4.70;99.90;;;;;;5085234;28;20425;-65
2023/03/27 01:11:40;;;;;;;1999.90;999.90;;;4.60;99.90;;;;;;5088004;28;20444;-66
2023/03/27 01:14:15;;;;;;;1999.90;999.90;;;4.60;99.90;;;;;;5086594;28;20433;-65
2023/03/27 01:16:52;;;;;;;1999.90;999.90;;;4.60;99.90;;;;;;5084925;22;20437;-77
2023/03/27 01:19:49;;;;;;;1999.90;999.90;;;4.60;99.90;;;;;;5062816;28;20440;-74
2023/03/27 01:22:59;;;;;;;1999.90;999.90;;;4.60;99.90;;;;;;5062104;28;20446;-73
2023/03/27 01:25:55;;;;;;;1999.90;999.90;;;4.60;99.90;;;;;;5064448;28;20429;-74
2023/03/27 01:28:35;;;;;;;1999.90;999.90;;;4.60;99.90;;;;;;5044504;28;20426;-74
2023/03/27 01:31:15;;;;;;;1999.90;999.90;;;4.50;99.90;;;;;;5034084;28;20431;-72
2023/03/27 01:34:00;;;;;;;1999.90;999.90;;;4.50;99.90;;;;;;5037709;28;20468;-74
2023/03/27 01:36:43;;;;;;;1999.90;999.90;;;4.50;99.90;;;;;;5045270;28;20446;-76
2023/03/27 01:39:35;;;;;;;1999.90;999.90;;;4.50;99.90;;;;;;5037575;28;20438;-77
2023/03/27 01:42:12;;;;;;;1999.90;999.90;;;4.50;99.90;;;;;;5034328;28;20982;-74
2023/03/27 01:44:45;;;;;;;1999.90;999.90;;;4.50;99.90;;;;;;5035450;28;20429;-73
2023/03/27 01:47:19;;;;;;;1999.90;999.90;;;4.40;99.90;;;;;;5043942;28;20440;-76
2023/03/27 01:49:53;;;;;;;1999.90;999.90;;;4.40;99.90;;;;;;5041754;28;20424;-74
2023/03/27 01:52:25;;;;;;;1999.90;999.90;;;4.40;99.90;;;;;;5044962;28;20461;-74
2023/03/27 01:55:03;;;;;;;1999.90;999.90;;;4.30;99.90;;;;;;5050567;28;20498;-75
2023/03/27 01:57:36;;;;;;;1999.90;999.90;;;4.30;99.90;;;;;;5043158;28;20434;-77
2023/03/27 02:00:11;;;;;;;1999.90;999.90;;;4.30;99.90;;;;;;5048962;28;20489;-75
2023/03/27 02:02:41;;;;;;;1999.90;999.90;;;4.30;99.90;;;;;;5040048;28;20526;-74
2023/03/27 02:05:14;;;;;;;1999.90;999.90;;;4.30;99.90;;;;;;5041026;28;20997;-75
2023/03/27 02:07:47;;;;;;;1999.90;999.90;;;4.30;99.90;;;;;;5039950;28;21144;-74
2023/03/27 02:10:20;;;;;;;1999.90;999.90;;;4.10;99.90;;;;;;5046581;28;20507;-74
2023/03/27 02:12:54;;;;;;;1999.90;999.90;;;4.10;99.90;;;;;;5036029;28;20440;-74
2023/03/27 02:15:23;;;;;;;1999.90;999.90;;;4.00;99.90;;;;;;5045912;28;21924;-75
2023/03/27 02:17:55;;;;;;;1999.90;999.90;;;3.90;99.90;;;;;;5049392;28;20437;-75
2023/03/27 02:20:23;;;;;;;1999.90;999.90;;;3.80;99.90;;;;;;5045313;28;20514;-74
2023/03/27 02:22:52;;;;;;;1999.90;999.90;;;4.20;99.90;;;;;;5048975;28;20479;-74
2023/03/27 02:25:28;;;;;;;1999.90;999.90;;;3.70;99.90;;;;;;5046654;28;20439;-74
2023/03/27 02:28:12;;;;;;;1999.90;999.90;;;3.70;99.90;;;;;;5048836;28;20437;-74
2023/03/27 02:30:45;;;;;;;1999.90;999.90;;;3.70;99.90;;;;;;5034757;28;20429;-74
2023/03/27 02:33:19;;;;;;;1999.90;999.90;;;3.60;99.90;;;;;;5044468;28;20532;-76
2023/03/27 02:35:56;;;;;;;1999.90;999.90;;;3.50;99.90;;;;;;5040723;28;20486;-74
2023/03/27 02:38:30;;;;;;;1999.90;999.90;;;3.50;99.90;;;;;;5045690;28;20996;-75
2023/03/27 02:41:08;;;;;;;1999.90;999.90;;;3.50;99.90;;;;;;5043921;28;20469;-73
2023/03/27 02:43:41;;;;;;;1999.90;999.90;;;3.40;99.90;;;;;;5047580;28;20484;-79
2023/03/27 02:46:14;;;;;;;1999.90;999.90;;;3.40;99.90;;;;;;5036798;28;20512;-73
2023/03/27 02:48:45;;;;;;;1999.90;999.90;;;3.30;99.90;;;;;;5048027;28;20494;-77
2023/03/27 02:51:17;;;;;;;1999.90;999.90;;;3.30;99.90;;;;;;5047296;28;20433;-75
2023/03/27 02:53:48;;;;;;;1999.90;999.90;;;3.20;99.90;;;;;;5032671;28;20556;-75
2023/03/27 02:56:21;;;;;;;1999.90;999.90;;;3.20;99.90;;;;;;5044138;28;20466;-71
2023/03/27 02:58:56;;;;;;;1999.90;999.90;;;3.10;99.90;;;;;;5040999;28;20429;-77
2023/03/27 03:01:25;;;;;;;1999.90;999.90;;;3.10;99.90;;;;;;5045608;28;20494;-74
2023/03/27 03:03:58;;;;;;;1999.90;999.90;;;3.00;99.90;;;;;;5048731;28;20507;-73
2023/03/27 03:06:28;;;;;;;1999.90;999.90;;;2.90;99.90;;;;;;5040764;28;20461;-74
2023/03/27 03:09:00;;;;;;;1999.90;999.90;;;2.90;99.90;;;;;;5049311;28;20445;-74
2023/03/27 03:11:29;;;;;;;1999.90;999.90;;;2.80;99.90;;;;;;5047048;28;20431;-74
2023/03/27 03:13:56;;;;;;;1999.90;999.90;;;2.80;99.90;;;;;;5048057;28;20433;-78
2023/03/27 03:16:23;;;;;;;1999.90;999.90;;;2.70;99.90;;;;;;5045459;28;20921;-74
2023/03/27 03:18:50;;;;;;;1999.90;999.90;;;2.70;99.90;;;;;;5040469;28;20441;-78
2023/03/27 03:21:17;;;;;;;1999.90;999.90;;;2.70;99.90;;;;;;5044586;28;20429;-76
2023/03/27 03:23:44;;;;;;;1999.90;999.90;;;2.60;99.90;;;;;;5043423;28;20922;-73
2023/03/27 03:26:11;;;;;;;1999.90;999.90;;;2.60;99.90;;;;;;5045473;28;20506;-73
2023/03/27 03:28:39;;;;;;;1999.90;999.90;;;2.50;99.90;;;;;;5043988;28;20521;-76
2023/03/27 03:31:09;;;;;;;1999.90;999.90;;;2.50;99.90;;;;;;5043449;28;20460;-74
2023/03/27 03:33:37;;;;;;;1999.90;999.90;;;2.50;99.90;;;;;;5047919;28;20481;-74
2023/03/27 03:36:05;;;;;;;1999.90;999.90;;;2.50;99.90;;;;;;5048683;28;20457;-72
2023/03/27 03:38:34;;;;;;;1999.90;999.90;;;2.50;99.90;;;;;;5045671;28;20434;-74
2023/03/27 03:41:01;;;;;;;1999.90;999.90;;;2.60;99.90;;;;;;5041236;28;20875;-74
2023/03/27 03:43:30;;;;;;;1999.90;999.90;;;2.60;99.90;;;;;;5036926;28;20430;-76
2023/03/27 03:45:58;;;;;;;1999.90;999.90;;;2.60;99.90;;;;;;5046480;28;20444;-78
2023/03/27 03:48:25;;;;;;;1999.90;999.90;;;2.70;99.90;;;;;;5041805;28;20436;-77
2023/03/27 03:50:52;;;;;;;1999.90;999.90;;;2.70;99.90;;;;;;5046957;28;20929;-74
2023/03/27 03:53:21;;;;;;;1999.90;999.90;;;2.70;99.90;;;;;;5041370;28;20500;-73
2023/03/27 03:55:51;;;;;;;1999.90;999.90;;;2.60;99.90;;;;;;5035320;28;20429;-74
2023/03/27 03:58:17;;;;;;;1999.90;999.90;;;2.60;99.90;;;;;;5043517;28;20482;-77
2023/03/27 04:00:45;;;;;;;1999.90;999.90;;;2.60;99.90;;;;;;5046611;28;20437;-79
2023/03/27 04:03:14;;;;;;;1999.90;999.90;;;2.70;99.90;;;;;;5043713;28;20508;-75
2023/03/27 04:05:41;;;;;;;1999.90;999.90;;;2.80;99.90;;;;;;5045431;28;20441;-75
2023/03/27 04:08:08;;;;;;;1999.90;999.90;;;2.80;99.90;;;;;;5043293;28;20440;-75
2023/03/27 04:10:37;;;;;;;1999.90;999.90;;;2.90;99.90;;;;;;5043419;28;20453;-77
2023/03/27 04:13:05;;;;;;;1999.90;999.90;;;3.00;99.90;;;;;;5043882;28;20433;-80
2023/03/27 04:15:32;;;;;;;1999.90;999.90;;;3.00;99.90;;;;;;5042817;28;20435;-77
2023/03/27 04:17:59;;;;;;;1999.90;999.90;;;2.90;99.90;;;;;;5043365;28;20437;-76
2023/03/27 04:20:28;;;;;;;1999.90;999.90;;;3.10;99.90;;;;;;5042729;28;20831;-77
2023/03/27 04:23:01;;;;;;;1999.90;999.90;;;3.00;99.90;;;;;;5045859;28;20433;-75
2023/03/27 04:25:28;;;;;;;1999.90;999.90;;;3.00;99.90;;;;;;5039748;28;20466;-75
2023/03/27 04:27:55;;;;;;;1999.90;999.90;;;3.00;99.90;;;;;;5044380;28;20464;-74
2023/03/27 04:30:24;;;;;;;1999.90;999.90;;;3.10;99.90;;;;;;5043008;28;20429;-74
2023/03/27 04:32:52;;;;;;;1999.90;999.90;;;2.90;99.90;;;;;;5035466;28;21015;-77
2023/03/27 04:35:20;;;;;;;1999.90;999.90;;;2.90;99.90;;;;;;5040505;28;20888;-71
2023/03/27 04:37:49;;;;;;;1999.90;999.90;;;2.80;99.90;;;;;;5039109;28;20567;-75
2023/03/27 04:40:17;;;;;;;1999.90;999.90;;;2.80;99.90;;;;;;5046062;28;20511;-75
2023/03/27 04:42:44;;;;;;;1999.90;999.90;;;2.80;99.90;;;;;;5046449;28;20883;-75
2023/03/27 04:45:14;;;;;;;1999.90;999.90;;;2.80;99.90;;;;;;5045400;28;20460;-76
2023/03/27 04:47:41;;;;;;;1999.90;999.90;;;2.90;99.90;;;;;;5047004;28;20489;-77
2023/03/27 04:50:10;;;;;;;1999.90;999.90;;;2.80;99.90;;;;;;5040855;28;20442;-75
2023/03/27 04:52:37;;;;;;;1999.90;999.90;;;2.90;99.90;;;;;;5042700;28;20431;-78
2023/03/27 04:55:07;;;;;;;1999.90;999.90;;;2.90;99.90;;;;;;5047339;28;20862;-75
2023/03/27 04:57:34;;;;;;;1999.90;999.90;;;3.10;99.90;;;;;;5044875;28;20899;-76
2023/03/27 05:00:10;;;;;;;1999.90;999.90;;;3.00;99.90;;;;;;5042314;28;20843;-75
2023/03/27 05:02:37;;;;;;;1999.90;999.90;;;3.00;99.90;;;;;;5045262;28;20490;-71
2023/03/27 05:05:03;;;;;;;1999.90;999.90;;;3.00;99.90;;;;;;5046661;28;20429;-76
2023/03/27 05:07:30;;;;;;;1999.90;999.90;;;3.10;99.90;;;;;;5044313;28;20934;-74
2023/03/27 05:09:57;;;;;;;1999.90;999.90;;;3.10;99.90;;;;;;5047871;28;20437;-77
2023/03/27 05:12:25;;;;;;;1999.90;999.90;;;3.00;99.90;;;;;;5040668;28;20512;-78
2023/03/27 05:14:52;;;;;;;1999.90;999.90;;;3.00;99.90;;;;;;5037522;28;20502;-74
2023/03/27 05:17:19;;;;;;;1999.90;999.90;;;3.00;99.90;;;;;;5044761;28;20432;-71
2023/03/27 05:19:46;;;;;;;1999.90;999.90;;;3.00;99.90;;;;;;5042960;28;20440;-77
2023/03/27 05:22:13;;;;;;;1999.90;999.90;;;3.10;99.90;;;;;;5039752;28;20437;-76
2023/03/27 05:24:40;;;;;;;1999.90;999.90;;;3.20;99.90;;;;;;5041579;28;21010;-70
2023/03/27 05:27:06;;;;;;;1999.90;999.90;;;3.30;99.90;;;;;;5048186;28;20911;-80
2023/03/27 05:29:35;;;;;;;1999.90;999.90;;;3.30;99.90;;;;;;5044319;28;20447;-74
2023/03/27 05:32:20;;;;;;;1999.90;999.90;;;3.40;99.90;;;;;;5050667;28;20478;-72
2023/03/27 05:34:49;;;;;;;1999.90;999.90;;;3.30;99.90;;;;;;5048062;28;20517;-75
2023/03/27 05:37:16;;;;;;;1999.90;999.90;;;3.30;99.90;;;;;;5039826;28;20520;-70
2023/03/27 05:39:45;;;;;;;1999.90;999.90;;;3.40;99.90;;;;;;5047429;28;20441;-76
2023/03/27 05:42:12;;;;;;;1999.90;999.90;;;3.40;99.90;;;;;;5048531;28;20986;-75
2023/03/27 05:44:41;;;;;;;1999.90;999.90;;;3.50;99.90;;;;;;5045740;28;20435;-77
2023/03/27 05:47:09;;;;;;;1999.90;999.90;;;3.50;99.90;;;;;;5048033;28;20437;-74
2023/03/27 05:49:36;;;;;;;1999.90;999.90;;;3.40;99.90;;;;;;5042372;28;20463;-76
2023/03/27 05:52:03;;;;;;;1999.90;999.90;;;3.60;99.90;;;;;;5050239;28;20433;-74
2023/03/27 05:54:30;;;;;;;1999.90;999.90;;;3.40;99.90;;;;;;5044235;28;20430;-74
2023/03/27 05:56:56;;;;;;;1999.90;999.90;;;3.50;99.90;;;;;;5047954;28;20433;-76
2023/03/27 05:59:23;;;;;;;1999.90;999.90;;;3.50;99.90;;;;;;5037858;28;20485;-74
2023/03/27 06:01:51;;;;;;;1999.90;999.90;;;3.60;99.90;;;;;;5043591;28;20511;-73
2023/03/27 06:04:18;;;;;;;1999.90;999.90;;;3.60;99.90;;;;;;5046823;28;20483;-75
2023/03/27 06:06:45;;;;;;;1999.90;999.90;;;3.60;99.90;;;;;;5045531;28;20439;-76
2023/03/27 06:09:15;;;;;;;1999.90;999.90;;;3.60;99.90;;;;;;5044427;28;20443;-78
2023/03/27 06:11:42;;;;;;;1999.90;999.90;;;3.70;99.90;;;;;;5046858;28;20471;-78
2023/03/27 06:14:08;;;;;;;1999.90;999.90;;;3.80;99.90;;;;;;5049262;28;20504;-74
2023/03/27 06:16:35;;;;;;;1999.90;999.90;;;3.90;99.90;;;;;;5040010;28;20494;-77
2023/03/27 06:19:03;;;;;;;1999.90;999.90;;;3.80;99.90;;;;;;5043020;28;20432;-74
2023/03/27 06:21:30;;;;;;;1999.90;999.90;;;3.90;99.90;;;;;;5043512;28;20471;-74
2023/03/27 06:23:57;;;;;;;1999.90;999.90;;;3.90;99.90;;;;;;5050745;28;20436;-73
2023/03/27 06:26:26;;;;;;;1999.90;999.90;;;3.90;99.90;;;;;;5045013;28;20519;-75
2023/03/27 06:28:54;;;;;;;1999.90;999.90;;;3.80;99.90;;;;;;5042869;28;20439;-75
2023/03/27 06:31:20;;;;;;;1999.90;999.90;;;3.70;99.90;;;;;;5044221;28;20441;-76
2023/03/27 06:33:47;;;;;;;1999.90;999.90;;;3.70;99.90;;;;;;5050315;28;20964;-73
2023/03/27 06:36:16;;;;;;;1999.90;999.90;;;3.80;99.90;;;;;;5038706;28;20485;-73
2023/03/27 06:38:43;;;;;;;1999.90;999.90;;;3.90;99.90;;;;;;5037622;28;20437;-73
2023/03/27 06:41:10;;;;;;;1999.90;999.90;;;4.00;99.90;;;;;;5029624;28;20479;-74
2023/03/27 06:43:37;;;;;;;1999.90;999.90;;;4.00;99.90;;;;;;5037930;28;20852;-75
2023/03/27 06:46:06;;;;;;;1999.90;999.90;;;4.10;99.90;;;;;;5037178;28;21015;-75
2023/03/27 06:48:33;;;;;;;1999.90;999.90;;;4.30;99.90;;;;;;5037586;28;20502;-74
2023/03/27 06:51:00;;;;;;;1999.90;999.90;;;4.50;99.90;;;;;;5027990;28;20459;-72
2023/03/27 06:53:28;;;;;;;1999.90;999.90;;;4.60;99.90;;;;;;5035728;28;20411;-73
2023/03/27 06:55:56;;;;;;;1999.90;999.90;;;4.80;99.90;;;;;;5045026;28;20475;-73
2023/03/27 06:58:23;;;;;;;1999.90;999.90;;;4.80;99.90;;;;;;5034956;28;20488;-73
2023/03/27 07:00:50;;;;;;;1999.90;999.90;;;4.80;99.90;;;;;;5036697;28;20434;-73
2023/03/27 07:03:17;;;;;;;1999.90;999.90;;;4.70;99.90;;;;;;5033273;28;20419;-74
2023/03/27 07:05:44;;;;;;;1999.90;999.90;;;4.70;99.90;;;;;;5036009;28;20418;-73
2023/03/27 07:08:13;;;;;;;1999.90;999.90;;;4.70;99.90;;;;;;5036289;28;20423;-74
2023/03/27 07:10:41;;;;;;;1999.90;999.90;;;4.50;99.90;;;;;;5037455;28;20496;-73
2023/03/27 07:13:10;;;;;;;1999.90;999.90;;;4.40;99.90;;;;;;5032992;28;20434;-74
2023/03/27 07:15:37;;;;;;;1999.90;999.90;;;4.40;99.90;;;;;;5033440;28;20517;-75
2023/03/27 07:18:05;;;;;;;1999.90;999.90;;;4.50;99.90;;;;;;5036247;28;20414;-70
2023/03/27 07:20:33;;;;;;;1999.90;999.90;;;4.50;99.90;;;;;;5034100;28;20493;-73
2023/03/27 07:23:02;;;;;;;1999.90;999.90;;;4.30;99.90;;;;;;5035968;28;20418;-73
2023/03/27 07:25:31;;;;;;;1999.90;999.90;;;4.30;99.90;;;;;;5036591;28;20505;-73
2023/03/27 07:28:00;;;;;;;1999.90;999.90;;;4.40;99.90;;;;;;5042981;28;20499;-73
2023/03/27 07:30:27;;;;;;;1999.90;999.90;;;4.70;99.90;;;;;;5038708;28;20853;-75
2023/03/27 07:32:54;;;;;;;1999.90;999.90;;;4.70;99.90;;;;;;5043856;28;21005;-75
2023/03/27 07:35:20;;;;;;;1999.90;999.90;;;4.70;99.90;;;;;;5045100;28;20433;-76
2023/03/27 07:37:47;;;;;;;1999.90;999.90;;;4.90;99.90;;;;;;5045776;28;20460;-73
2023/03/27 07:40:14;;;;;;;1999.90;999.90;;;5.00;99.90;;;;;;5045130;28;20441;-74
2023/03/27 07:42:44;;;;;;;1999.90;999.90;;;5.30;99.90;;;;;;5048864;28;20455;-73
2023/03/27 07:45:14;;;;;;;1999.90;999.90;;;5.30;99.90;;;;;;5035837;28;20502;-76
2023/03/27 07:47:42;;;;;;;1999.90;999.90;;;5.20;99.90;;;;;;5046873;28;20440;-77
2023/03/27 07:50:10;;;;;;;1999.90;999.90;;;5.30;99.90;;;;;;5049395;28;21122;-74
2023/03/27 07:52:39;;;;;;;1999.90;999.90;;;5.40;99.90;;;;;;5040122;28;20516;-76
2023/03/27 07:55:07;;;;;;;1999.90;999.90;;;5.70;99.90;;;;;;5052522;28;20530;-74
2023/03/27 07:57:38;;;;;;;1999.90;999.90;;;5.90;99.90;;;;;;5054439;28;20496;-76
2023/03/27 08:00:10;;;;;;;1999.90;999.90;;;6.10;99.90;;;;;;5041741;28;20848;-70
2023/03/27 08:02:38;;;;;;;1999.90;999.90;;;5.90;99.90;;;;;;5052638;28;20928;-73
2023/03/27 08:05:07;;;;;;;1999.90;999.90;;;6.00;99.90;;;;;;5044540;28;20987;-75
2023/03/27 08:07:34;;;;;;;1999.90;999.90;;;6.20;99.90;;;;;;5037373;28;20439;-73
2023/03/27 08:10:01;;;;;;;1999.90;999.90;;;6.30;99.90;;;;;;5047250;28;20437;-73
2023/03/27 08:12:29;;;;;;;1999.90;999.90;;;6.20;99.90;;;;;;5039170;28;20458;-77
2023/03/27 08:14:56;;;;;;;1999.90;999.90;;;5.90;99.90;;;;;;5036695;28;20557;-72
2023/03/27 08:17:25;;;;;;;1999.90;999.90;;;5.70;99.90;;;;;;5045655;28;20452;-77
2023/03/27 08:19:53;;;;;;;1999.90;999.90;;;5.50;99.90;;;;;;5046269;28;20437;-73
2023/03/27 08:22:20;;;;;;;1999.90;999.90;;;5.60;99.90;;;;;;5039592;28;20430;-72
2023/03/27 08:24:48;;;;;;;1999.90;999.90;;;5.90;99.90;;;;;;5037124;28;20439;-74
2023/03/27 08:27:15;;;;;;;1999.90;999.90;;;5.70;99.90;;;;;;5043991;28;20440;-74
2023/03/27 08:29:42;;;;;;;1999.90;999.90;;;5.60;99.90;;;;;;5046914;28;20434;-73
2023/03/27 08:32:10;;;;;;;1999.90;999.90;;;5.70;99.90;;;;;;5049678;28;20430;-73
2023/03/27 08:34:37;;;;;;;1999.90;999.90;;;5.60;99.90;;;;;;5039516;28;20799;-73
2023/03/27 08:37:05;;;;;;;1999.90;999.90;;;5.60;99.90;;;;;;5042530;28;20929;-73
2023/03/27 08:39:32;;;;;;;1999.90;999.90;;;6.10;99.90;;;;;;5041191;28;20440;-74
2023/03/27 08:42:00;;;;;;;1999.90;999.90;;;6.60;99.90;;;;;;5043343;28;20516;-73
2023/03/27 08:44:31;;;;;;;1999.90;999.90;;;6.70;99.90;;;;;;5033192;28;20439;-74
2023/03/27 08:47:05;;;;;;;1999.90;999.90;;;6.60;99.90;;;;;;5034417;28;20419;-73
2023/03/27 08:49:35;;;;;;;1999.90;999.90;;;6.30;99.90;;;;;;5035022;28;20425;-73
2023/03/27 08:52:08;;;;;;;1999.90;999.90;;;6.20;99.90;;;;;;5036662;28;20419;-73
2023/03/27 08:54:37;;;;;;;1999.90;999.90;;;6.10;99.90;;;;;;5037066;28;20462;-73
2023/03/27 08:57:17;;;;;;;1999.90;999.90;;;6.00;99.90;;;;;;5040622;28;20799;-73
2023/03/27 08:59:43;;;;;;;1999.90;999.90;;;6.00;99.90;;;;;;5047699;28;20436;-73
2023/03/27 09:02:23;;;;;;;1999.90;999.90;;;5.80;99.90;;;;;;5043437;28;20814;-71
2023/03/27 09:04:59;;;;;;;1999.90;999.90;;;5.70;99.90;;;;;;5048528;28;20430;-76
2023/03/27 09:07:34;;;;;;;1999.90;999.90;;;5.70;99.90;;;;;;5043778;28;20495;-74
2023/03/27 09:10:09;;;;;;;1999.90;999.90;;;5.90;99.90;;;;;;5039636;28;20417;-73
2023/03/27 09:12:54;;;;;;;1999.90;999.90;;;6.10;99.90;;;;;;5047985;28;20497;-75
2023/03/27 09:15:24;;;;;;;1999.90;999.90;;;5.90;99.90;;;;;;5038977;28;20804;-77
2023/03/27 09:17:56;;;;;;;1999.90;999.90;;;5.80;99.90;;;;;;5038255;28;20449;-74
2023/03/27 09:20:28;;;;;;;1999.90;999.90;;;5.90;99.90;;;;;;5037407;28;20438;-74
2023/03/27 09:23:04;;;;;;;1999.90;999.90;;;6.00;99.90;;;;;;5039193;28;20465;-73
2023/03/27 09:25:36;;;;;;;1999.90;999.90;;;6.10;99.90;;;;;;5036608;28;20839;-73
2023/03/27 09:28:11;;;;;;;1999.90;999.90;;;6.30;99.90;;;;;;5033703;28;20442;-75
2023/03/27 09:30:38;;;;;;;1999.90;999.90;;;6.30;99.90;;;;;;5039631;28;20423;-73
2023/03/27 09:33:06;;;;;;;1999.90;999.90;;;6.00;99.90;;;;;;5036640;28;20433;-73
2023/03/27 09:35:37;;;;;;;1999.90;999.90;;;5.70;99.90;;;;;;5038750;28;20995;-76
2023/03/27 09:38:23;;;;;;;1999.90;999.90;;;5.60;99.90;;;;;;5038840;28;20423;-76
2023/03/27 09:40:55;;;;;;;1999.90;999.90;;;5.70;99.90;;;;;;5042935;28;20531;-73
2023/03/27 09:43:26;;;;;;;1999.90;999.90;;;6.00;99.90;;;;;;5043256;28;20429;-73
2023/03/27 09:45:54;;;;;;;1999.90;999.90;;;6.30;99.90;;;;;;5034457;28;20461;-73
2023/03/27 09:48:28;;;;;;;1999.90;999.90;;;6.50;99.90;;;;;;5043320;28;20429;-73
2023/03/27 09:51:04;;;;;;;1999.90;999.90;;;6.30;99.90;;;;;;5039178;28;20434;-75
2023/03/27 09:53:34;;;;;;;1999.90;999.90;;;6.30;99.90;;;;;;5041481;28;20536;-75
2023/03/27 09:56:03;;;;;;;1999.90;999.90;;;6.10;99.90;;;;;;5040085;28;20439;-73
2023/03/27 09:58:34;;;;;;;1999.90;999.90;;;6.30;99.90;;;;;;5041531;28;20434;-78
2023/03/27 10:01:14;;;;;;;1999.90;999.90;;;6.20;99.90;;;;;;5042476;28;20926;-73
2023/03/27 10:04:13;;;;;;;1999.90;999.90;;;6.40;99.90;;;;;;5041921;28;20440;-75
2023/03/27 10:06:44;;;;;;;1999.90;999.90;;;6.60;99.90;;;;;;5037270;28;20429;-79
2023/03/27 10:09:22;;;;;;;1999.90;999.90;;;6.50;99.90;;;;;;5040923;28;20438;-74
2023/03/27 10:11:50;;;;;;;1999.90;999.90;;;6.50;99.90;;;;;;5038629;28;21002;-73
2023/03/27 10:14:20;;;;;;;1999.90;999.90;;;6.80;99.90;;;;;;5043903;28;20429;-76
2023/03/27 10:16:48;;;;;;;1999.90;999.90;;;7.20;99.90;;;;;;5037516;28;20438;-74
2023/03/27 10:19:25;;;;;;;1999.90;999.90;;;7.30;99.90;;;;;;5042825;28;20439;-73
2023/03/27 10:21:54;;;;;;;1999.90;999.90;;;7.40;99.90;;;;;;5032669;28;20788;-72
2023/03/27 10:24:30;;;;;;;1999.90;999.90;;;6.40;99.90;;;;;;5045831;28;20822;-73
2023/03/27 10:26:59;;;;;;;1999.90;999.90;;;5.40;99.90;;;;;;5036110;28;20430;-71
2023/03/27 10:29:30;;;;;;;1999.90;999.90;;;4.70;99.90;;;;;;5042407;28;20433;-72
2023/03/27 10:31:58;;;;;;;1999.90;999.90;;;4.50;99.90;;;;;;5036449;28;20439;-70
2023/03/27 10:34:35;;;;;;;1999.90;999.90;;;4.40;99.90;;;;;;5029421;28;20421;-68
2023/03/27 10:37:03;;;;;;;1999.90;999.90;;;4.40;99.90;;;;;;5038387;28;20506;-70
2023/03/27 10:39:34;;;;;;;1999.90;999.90;;;4.70;99.90;;;;;;5041866;28;20493;-72
2023/03/27 10:42:06;;;;;;;1999.90;999.90;;;4.70;99.90;;;;;;5038153;28;20442;-72
2023/03/27 10:44:36;;;;;;;1999.90;999.90;;;5.40;99.90;;;;;;5035389;28;20841;-74
2023/03/27 10:47:03;;;;;;;1999.90;999.90;;;5.90;99.90;;;;;;5033184;28;20531;-69
2023/03/27 10:49:38;;;;;;;1999.90;999.90;;;6.30;99.90;;;;;;5038417;28;20434;-70
2023/03/27 10:52:15;;;;;;;1999.90;999.90;;;6.50;99.90;;;;;;5038651;28;20859;-75
2023/03/27 10:54:46;;;;;;;1999.90;999.90;;;6.40;99.90;;;;;;5038173;28;20517;-73
2023/03/27 10:57:16;;;;;;;1999.90;999.90;;;6.60;99.90;;;;;;5029844;28;20498;-76
2023/03/27 10:59:49;;;;;;;1999.90;999.90;;;6.90;99.90;;;;;;5032345;28;20481;-75
2023/03/27 11:02:20;;;;;;;1999.90;999.90;;;7.20;99.90;;;;;;5025673;28;20451;-75
2023/03/27 11:04:52;;;;;;;1999.90;999.90;;;7.60;99.90;;;;;;5032387;28;20422;-73
2023/03/27 11:07:24;;;;;;;1999.90;999.90;;;8.20;99.90;;;;;;5012730;28;20424;-75
2023/03/27 11:09:58;;;;;;;1999.90;999.90;;;8.40;99.90;;;;;;5028246;28;20493;-73
2023/03/27 11:12:27;;;;;;;1999.90;999.90;;;8.50;99.90;;;;;;5026794;28;20437;-73
2023/03/27 11:15:00;;;;;;;1999.90;999.90;;;8.70;99.90;;;;;;5030997;28;20435;-73
2023/03/27 11:17:32;;;;;;;1999.90;999.90;;;8.90;99.90;;;;;;5029237;28;20541;-74
2023/03/27 11:20:06;;;;;;;1999.90;999.90;;;9.20;99.90;;;;;;5023096;28;20528;-74
2023/03/27 11:22:37;;;;;;;1999.90;999.90;;;9.30;99.90;;;;;;5027243;28;20499;-78
2023/03/27 11:25:13;;;;;;;1999.90;999.90;;;9.30;99.90;;;;;;5039019;28;20438;-71
2023/03/27 11:27:42;;;;;;;1999.90;999.90;;;8.70;99.80;;;;;;5038477;28;20435;-76
2023/03/27 11:30:36;;;;;;;1999.90;999.90;;;8.00;99.90;;;;;;5034040;28;20948;-76
2023/03/27 11:33:12;;;;;;;1999.90;999.90;;;7.00;99.90;;;;;;5039925;28;20436;-74
2023/03/27 11:35:45;;;;;;;1999.90;999.90;;;5.60;99.90;;;;;;5034136;28;20438;-74
2023/03/27 11:38:18;;;;;;;1999.90;999.90;;;4.80;99.90;;;;;;5037548;28;20443;-73
2023/03/27 11:40:48;;;;;;;1999.90;999.90;;;4.40;99.90;;;;;;5024101;28;20431;-73
2023/03/27 11:43:17;;;;;;;1999.90;999.90;;;4.00;99.90;;;;;;5035543;28;20415;-74
2023/03/27 11:45:49;;;;;;;1999.90;999.90;;;3.90;99.90;;;;;;5034783;28;20423;-75
2023/03/27 11:48:32;;;;;;;1999.90;999.90;;;3.80;99.90;;;;;;5035580;28;20419;-73
2023/03/27 11:51:03;;;;;;;1999.90;999.90;;;3.80;99.90;;;;;;5027546;28;20442;-74
2023/03/27 11:53:43;;;;;;;1999.90;999.90;;;4.10;99.90;;;;;;5037179;28;20477;-71
2023/03/27 11:56:29;;;;;;;1999.90;999.90;;;4.30;99.90;;;;;;5035029;28;20437;-74
2023/03/27 11:59:14;;;;;;;1999.90;999.90;;;4.60;99.90;;;;;;5025210;28;20504;-74
2023/03/27 12:01:47;;;;;;;1999.90;999.90;;;5.00;99.90;;;;;;5025862;28;20436;-75
2023/03/27 12:04:37;;;;;;;1999.90;999.90;;;5.20;99.90;;;;;;5032815;28;20780;-76
2023/03/27 12:07:13;;;;;;;1999.90;999.90;;;5.50;99.90;;;;;;5032123;28;20426;-76
2023/03/27 12:10:01;;;;;;;1999.90;999.90;;;5.60;99.90;;;;;;5029242;28;20450;-74
2023/03/27 12:12:51;;;;;;;1999.90;999.90;;;5.70;99.90;;;;;;5028512;28;20426;-75
2023/03/27 12:15:46;;;;;;;1999.90;999.90;;;5.70;99.90;;;;;;5034164;28;20533;-74
2023/03/27 12:18:25;;;;;;;1999.90;999.90;;;5.60;99.90;;;;;;5038110;28;20438;-75
2023/03/27 12:21:03;;;;;;;1999.90;999.90;;;5.80;99.90;;;;;;5031434;28;20430;-75
2023/03/27 12:24:04;;;;;;;1999.90;999.90;;;6.20;99.90;;;;;;5038001;28;20429;-76
2023/03/27 12:26:55;;;;;;;1999.90;999.90;;;6.40;99.90;;;;;;5034374;28;20923;-77
2023/03/27 12:29:44;;;;;;;1999.90;999.90;;;6.50;99.90;;;;;;5027889;28;20996;-73